Time;durP1;ratioP1;P1;durP2;ratioP2;P2;SDS_P1;SDS_P2;PMS_P1;PMS_P2;Temp;Humidity;BMP_temperature;BMP_pressure;BME280_temperature;BME280_humidity;BME280_pressure;Samples;Min_cycle;Max_cycle;Signal;HPM_P1;HPM_P2
2023/10/09 00:00:58;;;;;;;3.95;1.98;;;11.90;99.90;;;;;;4927704;29;20118;-63
2023/10/09 00:03:24;;;;;;;2.70;2.10;;;11.90;99.90;;;;;;4933472;28;20040;-64
2023/10/09 00:05:53;;;;;;;4.28;1.92;;;11.80;99.90;;;;;;4911012;29;20112;-63
2023/10/09 00:08:26;;;;;;;5.25;2.15;;;11.80;99.90;;;;;;4931007;29;20512;-61
2023/10/09 00:10:55;;;;;;;2.53;2.20;;;11.80;99.90;;;;;;4930551;28;20028;-64
2023/10/09 00:13:30;;;;;;;3.47;1.88;;;11.80;99.90;;;;;;4927928;29;20039;-64
2023/10/09 00:16:01;;;;;;;3.38;1.90;;;11.80;99.90;;;;;;4928343;29;20024;-63
2023/10/09 00:18:33;;;;;;;3.92;1.98;;;11.80;99.90;;;;;;4929321;28;20040;-63
2023/10/09 00:21:12;;;;;;;2.28;1.90;;;11.90;99.90;;;;;;4928444;29;20049;-64
2023/10/09 00:23:42;;;;;;;3.85;2.03;;;11.90;99.90;;;;;;4927711;29;20392;-64
2023/10/09 00:26:12;;;;;;;4.07;2.40;;;11.90;99.90;;;;;;4927064;29;20036;-64
2023/10/09 00:28:43;;;;;;;2.37;1.93;;;12.00;99.90;;;;;;4927254;29;20038;-63
2023/10/09 00:31:14;;;;;;;;;;;12.00;99.90;;;;;;4928985;28;20403;-64
2023/10/09 00:33:41;;;;;;;5.78;2.10;;;12.00;99.90;;;;;;4929411;29;20390;-64
2023/10/09 00:36:10;;;;;;;4.55;2.10;;;12.00;99.90;;;;;;4926901;29;20020;-65
2023/10/09 00:38:39;;;;;;;3.05;2.17;;;12.00;99.90;;;;;;4914572;29;20086;-64
2023/10/09 00:43:36;;;;;;;4.22;2.78;;;12.00;99.90;;;;;;4925661;29;20047;-64
2023/10/09 00:46:03;;;;;;;4.63;2.20;;;11.90;99.90;;;;;;4928644;29;20063;-63
2023/10/09 00:48:37;;;;;;;3.38;2.63;;;11.90;99.90;;;;;;4927827;29;20829;-61
2023/10/09 00:51:21;;;;;;;3.08;2.88;;;11.90;99.90;;;;;;4929602;29;20031;-62
2023/10/09 00:53:59;;;;;;;3.25;2.95;;;11.90;99.90;;;;;;4928651;29;20035;-64
2023/10/09 00:58:55;;;;;;;2.95;2.75;;;11.80;99.90;;;;;;4928582;29;20035;-64
2023/10/09 01:01:40;;;;;;;3.10;2.50;;;11.90;99.90;;;;;;4913893;29;20563;-64
2023/10/09 01:04:14;;;;;;;5.70;2.97;;;11.90;99.90;;;;;;4927019;29;20131;-65
2023/10/09 01:06:47;;;;;;;5.32;3.45;;;11.90;99.90;;;;;;4920741;29;20024;-64
2023/10/09 01:09:14;;;;;;;4.68;3.45;;;11.90;99.90;;;;;;4929504;29;20100;-64
2023/10/09 01:14:16;;;;;;;6.35;2.92;;;11.80;99.90;;;;;;4928657;29;20032;-64
2023/10/09 01:16:47;;;;;;;5.85;3.75;;;11.80;99.90;;;;;;4927816;29;20456;-63
2023/10/09 01:19:14;;;;;;;2.90;2.65;;;11.80;99.90;;;;;;4924965;29;20115;-63
2023/10/09 01:21:40;;;;;;;3.05;2.75;;;11.80;99.90;;;;;;4925906;29;20099;-64
2023/10/09 01:24:09;;;;;;;3.55;3.13;;;11.80;99.90;;;;;;4927341;29;20020;-65
2023/10/09 01:26:46;;;;;;;3.33;3.03;;;11.80;99.90;;;;;;4929514;29;20106;-64
2023/10/09 01:29:27;;;;;;;5.75;3.55;;;11.80;99.90;;;;;;4926300;29;20036;-64
2023/10/09 01:32:00;;;;;;;5.53;3.13;;;11.80;99.90;;;;;;4929059;29;20039;-64
2023/10/09 01:34:43;;;;;;;4.30;2.97;;;11.80;99.90;;;;;;4924721;29;20040;-63
2023/10/09 01:37:26;;;;;;;3.78;2.88;;;11.70;99.90;;;;;;4927546;29;20159;-64
2023/10/09 01:39:53;;;;;;;3.75;2.63;;;11.70;99.90;;;;;;4929126;29;20098;-64
2023/10/09 01:42:45;;;;;;;3.70;2.50;;;11.70;99.90;;;;;;4929997;29;20027;-64
2023/10/09 01:47:51;;;;;;;4.53;2.63;;;11.70;99.90;;;;;;4925928;29;20106;-62
2023/10/09 01:50:22;;;;;;;3.58;2.63;;;11.70;99.90;;;;;;4927002;29;20039;-64
2023/10/09 01:52:47;;;;;;;7.60;3.10;;;11.70;99.90;;;;;;4927702;29;20024;-63
2023/10/09 01:55:27;;;;;;;3.55;2.95;;;11.70;99.90;;;;;;4925997;29;20020;-64
2023/10/09 01:57:53;;;;;;;8.85;3.92;;;11.60;99.90;;;;;;4925495;29;20028;-64
2023/10/09 02:00:23;;;;;;;3.38;2.95;;;11.60;99.90;;;;;;4927461;29;20032;-63
2023/10/09 02:02:50;;;;;;;4.72;3.20;;;11.60;99.90;;;;;;4927818;29;20111;-63
2023/10/09 02:07:51;;;;;;;4.53;2.97;;;11.50;99.90;;;;;;4926984;28;21299;-64
2023/10/09 02:12:58;;;;;;;3.10;2.80;;;11.40;99.90;;;;;;4925772;29;20107;-64
2023/10/09 02:18:26;;;;;;;3.70;2.80;;;11.30;99.90;;;;;;4928784;29;20472;-63
2023/10/09 02:21:39;;;;;;;4.43;2.95;;;11.20;99.90;;;;;;4924220;29;20043;-63
2023/10/09 02:23:51;;;;;;;7.13;3.67;;;11.20;99.90;;;;;;4924328;29;20051;-63
2023/10/09 02:26:40;;;;;;;4.38;3.75;;;11.10;99.90;;;;;;4927380;29;20123;-63
2023/10/09 02:29:17;;;;;;;4.72;3.05;;;11.10;99.90;;;;;;4928077;29;20038;-64
2023/10/09 02:31:47;;;;;;;4.28;3.22;;;11.00;99.90;;;;;;4924286;28;20395;-63
2023/10/09 02:34:15;;;;;;;6.78;3.17;;;11.00;99.90;;;;;;4923883;29;20024;-64
2023/10/09 02:36:49;;;;;;;3.80;3.50;;;11.00;99.90;;;;;;4926932;29;20031;-64
2023/10/09 02:39:52;;;;;;;3.72;3.38;;;11.00;99.90;;;;;;4923644;29;20035;-63
2023/10/09 02:44:45;;;;;;;5.38;3.28;;;10.90;99.90;;;;;;4929302;29;20382;-63
2023/10/09 02:47:17;;;;;;;3.38;3.08;;;10.90;99.90;;;;;;4927061;29;20123;-64
2023/10/09 02:49:43;;;;;;;4.13;3.45;;;10.90;99.90;;;;;;4924710;29;20038;-63
2023/10/09 02:52:17;;;;;;;6.20;4.00;;;10.90;99.90;;;;;;4926659;29;20039;-64
2023/10/09 02:54:46;;;;;;;4.03;3.47;;;10.90;99.90;;;;;;4927056;29;20031;-64
2023/10/09 02:57:36;;;;;;;4.32;3.92;;;10.90;99.90;;;;;;4925467;29;20493;-64
2023/10/09 03:00:01;;;;;;;4.10;3.70;;;10.90;99.90;;;;;;4923785;29;20798;-63
2023/10/09 03:02:26;;;;;;;4.60;3.10;;;10.90;99.90;;;;;;4926745;29;20024;-64
2023/10/09 03:04:55;;;;;;;10.07;3.42;;;10.90;99.90;;;;;;4925817;29;20075;-64
2023/10/09 03:07:23;;;;;;;5.60;3.30;;;10.90;99.90;;;;;;4924914;29;20027;-63
2023/10/09 03:09:49;;;;;;;5.38;3.50;;;10.90;99.90;;;;;;4925907;29;20036;-63
2023/10/09 03:12:18;;;;;;;4.22;3.20;;;10.90;99.90;;;;;;4925632;29;20039;-63
2023/10/09 03:14:44;;;;;;;7.78;3.60;;;10.90;99.90;;;;;;4925403;29;20036;-63
2023/10/09 03:17:13;;;;;;;6.22;3.47;;;10.90;99.90;;;;;;4924939;29;20032;-63
2023/10/09 03:19:39;;;;;;;3.35;3.05;;;10.80;99.90;;;;;;4926204;29;20043;-61
2023/10/09 03:22:09;;;;;;;4.45;3.10;;;10.80;99.90;;;;;;4925216;29;20028;-64
2023/10/09 03:24:36;;;;;;;4.63;3.20;;;10.70;99.90;;;;;;4926425;29;20115;-62
2023/10/09 03:27:02;;;;;;;4.40;2.67;;;10.70;99.90;;;;;;4924382;29;20028;-64
2023/10/09 03:29:28;;;;;;;3.47;2.83;;;10.60;99.90;;;;;;4924091;29;20036;-64
2023/10/09 03:31:55;;;;;;;17.38;3.47;;;10.50;99.90;;;;;;4925251;29;20026;-63
2023/10/09 03:34:21;;;;;;;4.30;2.70;;;10.40;99.90;;;;;;4926798;29;20032;-64
2023/10/09 03:36:51;;;;;;;3.88;3.50;;;10.40;99.90;;;;;;4925915;29;20083;-63
2023/10/09 03:42:05;;;;;;;6.53;3.20;;;10.50;99.90;;;;;;4926600;29;20058;-64
2023/10/09 03:44:35;;;;;;;5.25;2.95;;;10.50;99.90;;;;;;4924748;29;20040;-62
2023/10/09 03:47:01;;;;;;;5.40;3.58;;;10.50;99.90;;;;;;4925288;28;20044;-63
2023/10/09 03:49:29;;;;;;;5.38;3.97;;;10.60;99.90;;;;;;4924272;29;20453;-62
2023/10/09 03:51:55;;;;;;;4.20;3.55;;;10.70;99.90;;;;;;4925914;29;20138;-63
2023/10/09 03:54:22;;;;;;;3.53;3.22;;;10.70;99.90;;;;;;4924515;29;20036;-63
2023/10/09 03:56:50;;;;;;;5.60;3.72;;;10.70;99.90;;;;;;4926220;29;20585;-63
2023/10/09 03:59:20;;;;;;;4.32;3.42;;;10.80;99.90;;;;;;4925050;29;20571;-63
2023/10/09 04:01:48;;;;;;;4.05;2.83;;;10.80;99.90;;;;;;4929327;28;20059;-63
2023/10/09 04:04:14;;;;;;;4.90;3.20;;;10.80;99.90;;;;;;4929200;29;20032;-64
2023/10/09 04:06:40;;;;;;;4.78;3.45;;;10.70;99.90;;;;;;4928527;29;20125;-64
2023/10/09 04:11:46;;;;;;;4.00;3.10;;;10.70;99.90;;;;;;4927760;29;20028;-64
2023/10/09 04:14:23;;;;;;;3.95;3.15;;;10.60;99.90;;;;;;4930799;29;20102;-64
2023/10/09 04:16:51;;;;;;;6.70;3.25;;;10.60;99.90;;;;;;4929215;29;20040;-63
2023/10/09 04:19:21;;;;;;;6.45;3.17;;;10.50;99.90;;;;;;4931811;29;20028;-63
2023/10/09 04:21:48;;;;;;;5.60;3.40;;;10.50;99.90;;;;;;4929613;29;20050;-63
2023/10/09 04:26:46;;;;;;;4.63;3.40;;;10.40;99.90;;;;;;4929929;29;20114;-64
2023/10/09 04:29:26;;;;;;;4.95;2.90;;;10.40;99.90;;;;;;4928754;28;20072;-64
2023/10/09 04:31:56;;;;;;;3.63;2.40;;;10.30;99.90;;;;;;4927405;29;20063;-64
2023/10/09 04:37:17;;;;;;;32.30;3.35;;;10.20;99.90;;;;;;4927681;29;20111;-63
2023/10/09 04:42:36;;;;;;;26.52;3.25;;;10.10;99.90;;;;;;4928005;28;20028;-63
2023/10/09 04:47:57;;;;;;;28.35;3.22;;;10.10;99.90;;;;;;4927084;29;20071;-63
2023/10/09 04:52:55;;;;;;;25.98;3.38;;;10.00;99.90;;;;;;4928184;29;20118;-63
2023/10/09 04:55:25;;;;;;;10.93;3.05;;;9.90;99.90;;;;;;4924555;29;20120;-63
2023/10/09 04:58:13;;;;;;;31.83;3.63;;;9.80;99.90;;;;;;4928586;29;20035;-64
2023/10/09 05:03:12;;;;;;;8.80;2.70;;;9.80;99.90;;;;;;4927648;29;20015;-63
2023/10/09 05:08:28;;;;;;;5.93;2.47;;;9.70;99.90;;;;;;4926792;29;20032;-62
2023/10/09 05:18:56;;;;;;;5.70;4.50;;;9.80;99.90;;;;;;4928685;29;20034;-63
2023/10/09 05:32:15;;;;;;;55.33;7.20;;;10.10;99.90;;;;;;4928225;29;20036;-63
2023/10/09 05:37:33;;;;;;;10.95;5.20;;;10.10;99.90;;;;;;4925711;29;20032;-64
2023/10/09 05:47:56;;;;;;;59.20;3.00;;;9.90;99.90;;;;;;4926909;29;20031;-63
2023/10/09 06:03:53;;;;;;;38.97;3.65;;;9.60;99.90;;;;;;4928719;28;20034;-63
2023/10/09 06:11:49;;;;;;;17.77;4.10;;;9.80;99.90;;;;;;4929062;29;20034;-63
2023/10/09 06:14:25;;;;;;;29.52;4.07;;;9.90;99.90;;;;;;4930011;29;20070;-63
2023/10/09 06:19:43;;;;;;;5.10;4.40;;;10.00;99.90;;;;;;4926997;29;20051;-63
2023/10/09 06:24:42;;;;;;;5.18;4.40;;;10.20;99.90;;;;;;4925419;29;20123;-63
2023/10/09 06:34:52;;;;;;;19.95;6.47;;;10.50;99.90;;;;;;4928338;29;20497;-63
2023/10/09 06:47:41;;;;;;;9.25;7.43;;;10.70;99.90;;;;;;4926826;29;20477;-64
2023/10/09 06:53:19;;;;;;;8.50;6.30;;;10.80;99.90;;;;;;4927714;29;20050;-64
2023/10/09 06:55:50;;;;;;;7.57;6.75;;;10.90;99.90;;;;;;4923044;28;20412;-64
2023/10/09 06:58:26;;;;;;;6.88;6.18;;;10.90;99.90;;;;;;4926894;29;20023;-63
2023/10/09 07:03:51;;;;;;;7.63;6.60;;;11.10;99.90;;;;;;4927179;29;20038;-63
2023/10/09 07:06:24;;;;;;;12.88;8.32;;;11.20;99.90;;;;;;4924292;28;20481;-63
2023/10/09 07:15:01;;;;;;;6.07;4.05;;;11.20;99.90;;;;;;4923816;28;20028;-64
2023/10/09 07:24:57;;;;;;;;;;;;;;;;;;;;;
2023/10/09 07:30:35;;;;;;;6.28;5.68;;;11.00;99.90;;;;;;4926521;29;20090;-65
2023/10/09 07:38:20;;;;;;;9.00;6.45;;;11.00;99.90;;;;;;4926312;29;20575;-64
2023/10/09 07:41:33;;;;;;;8.55;6.05;;;11.00;99.90;;;;;;4929809;29;20027;-64
2023/10/09 07:43:45;;;;;;;10.30;6.70;;;11.00;99.90;;;;;;4926673;29;20064;-65
2023/10/09 07:46:51;;;;;;;8.70;6.18;;;11.10;99.90;;;;;;4930131;29;20071;-65
2023/10/09 07:49:25;;;;;;;11.10;5.80;;;11.10;99.90;;;;;;4929483;29;20167;-64
2023/10/09 07:51:52;;;;;;;8.32;6.03;;;11.10;99.90;;;;;;4929379;29;20111;-64
2023/10/09 07:54:31;;;;;;;10.40;6.75;;;11.20;99.90;;;;;;4928270;29;20091;-65
2023/10/09 07:57:08;;;;;;;12.05;7.43;;;11.20;99.90;;;;;;4931347;29;20031;-65
2023/10/09 07:59:40;;;;;;;8.00;6.25;;;11.30;99.90;;;;;;4930052;29;20035;-65
2023/10/09 08:02:13;;;;;;;11.35;7.05;;;11.30;99.90;;;;;;4930403;29;20525;-65
2023/10/09 08:04:47;;;;;;;8.55;5.95;;;11.30;99.90;;;;;;4930281;29;20047;-64
2023/10/09 08:07:34;;;;;;;13.48;6.65;;;11.40;99.90;;;;;;4928755;29;20051;-65
2023/10/09 08:18:13;;;;;;;10.43;7.05;;;11.60;99.90;;;;;;4927900;29;20050;-64
2023/10/09 08:23:33;;;;;;;9.73;8.18;;;11.80;99.90;;;;;;4929281;29;20099;-64
2023/10/09 08:26:14;;;;;;;10.23;7.50;;;11.90;99.90;;;;;;4928547;29;20051;-64
2023/10/09 08:28:45;;;;;;;10.38;7.50;;;12.00;99.90;;;;;;4929479;29;20036;-65
2023/10/09 08:33:58;;;;;;;11.43;6.55;;;12.10;99.90;;;;;;4928890;29;20062;-63
2023/10/09 08:36:28;;;;;;;9.68;6.55;;;12.10;99.90;;;;;;4924520;29;20028;-63
2023/10/09 08:38:58;;;;;;;14.52;8.30;;;12.00;99.90;;;;;;4928204;29;20110;-65
2023/10/09 08:41:25;;;;;;;13.00;8.93;;;12.10;99.90;;;;;;4928560;29;20400;-64
2023/10/09 08:43:52;;;;;;;12.48;7.13;;;12.10;99.90;;;;;;4923815;29;20566;-64
2023/10/09 08:46:28;;;;;;;14.93;7.45;;;12.10;99.90;;;;;;4928696;29;20032;-64
2023/10/09 08:49:04;;;;;;;13.55;7.55;;;12.10;99.90;;;;;;4927916;29;20063;-64
2023/10/09 08:51:30;;;;;;;15.05;7.20;;;12.10;99.90;;;;;;4926820;29;20036;-62
2023/10/09 08:53:57;;;;;;;11.30;7.47;;;12.00;99.90;;;;;;4926760;29;20506;-64
2023/10/09 08:56:23;;;;;;;17.75;8.23;;;12.00;99.90;;;;;;4927262;29;20039;-63
2023/10/09 08:59:02;;;;;;;8.95;6.82;;;11.90;99.90;;;;;;4928171;29;20501;-64
2023/10/09 09:01:31;;;;;;;8.95;7.15;;;12.00;99.90;;;;;;4926683;28;20123;-64
2023/10/09 09:03:59;;;;;;;12.40;7.30;;;12.00;99.90;;;;;;4930646;29;20032;-64
2023/10/09 09:06:25;;;;;;;9.55;7.47;;;12.00;99.90;;;;;;4929412;28;20051;-63
2023/10/09 09:08:59;;;;;;;14.85;7.13;;;12.00;99.90;;;;;;4927238;29;20036;-64
2023/10/09 09:11:30;;;;;;;11.00;7.65;;;12.00;99.90;;;;;;4923926;29;20036;-64
2023/10/09 09:13:58;;;;;;;8.25;7.45;;;12.10;99.90;;;;;;4926831;29;20424;-63
2023/10/09 09:16:31;;;;;;;9.75;8.15;;;12.10;99.90;;;;;;4927753;29;20051;-63
2023/10/09 09:19:04;;;;;;;8.20;7.40;;;12.20;99.90;;;;;;4927130;29;20044;-64
2023/10/09 09:21:42;;;;;;;13.38;7.55;;;12.40;99.90;;;;;;4926516;29;20046;-61
2023/10/09 09:24:26;;;;;;;8.00;6.78;;;12.40;99.90;;;;;;4927677;29;20107;-64
2023/10/09 09:27:00;;;;;;;9.25;6.50;;;12.50;99.90;;;;;;4926253;29;20067;-63
2023/10/09 09:29:52;;;;;;;11.82;7.20;;;12.60;99.90;;;;;;4926789;29;20035;-63
2023/10/09 09:32:35;;;;;;;12.50;6.75;;;12.70;99.90;;;;;;4921955;29;20056;-63
2023/10/09 09:35:02;;;;;;;8.60;6.45;;;12.70;99.90;;;;;;4926870;29;20036;-64
2023/10/09 09:37:29;;;;;;;12.07;6.65;;;12.70;99.90;;;;;;4926937;29;20055;-64
2023/10/09 09:39:58;;;;;;;7.93;6.90;;;12.70;99.90;;;;;;4927756;29;20038;-64
2023/10/09 09:42:25;;;;;;;8.20;7.38;;;12.80;99.90;;;;;;4928857;29;20038;-64
2023/10/09 09:44:55;;;;;;;8.30;7.18;;;12.80;99.90;;;;;;4925758;29;20099;-64
2023/10/09 09:47:26;;;;;;;8.10;7.20;;;12.90;99.90;;;;;;4909691;29;20028;-63
2023/10/09 09:49:53;;;;;;;;;;;12.90;99.90;;;;;;4928182;29;20035;-64
2023/10/09 09:52:19;;;;;;;10.00;7.97;;;12.90;99.90;;;;;;4926007;29;19966;-64
2023/10/09 09:54:49;;;;;;;8.65;6.80;;;13.00;99.90;;;;;;4925511;29;20028;-64
2023/10/09 09:57:25;;;;;;;9.75;6.88;;;13.00;99.90;;;;;;4926811;29;20080;-64
2023/10/09 09:59:54;;;;;;;8.35;6.10;;;13.00;99.90;;;;;;4927106;29;20033;-64
2023/10/09 10:02:33;;;;;;;7.18;6.47;;;13.00;99.90;;;;;;4929106;29;20055;-64
2023/10/09 10:05:03;;;;;;;8.50;7.40;;;13.10;99.90;;;;;;4925739;29;20135;-64
2023/10/09 10:07:39;;;;;;;7.95;6.43;;;13.10;99.90;;;;;;4924290;29;20040;-64
2023/10/09 10:10:57;;;;;;;7.05;6.35;;;13.30;99.90;;;;;;4926650;29;20047;-65
2023/10/09 10:13:41;;;;;;;16.55;7.47;;;13.40;99.90;;;;;;4923421;29;20039;-63
2023/10/09 10:16:23;;;;;;;7.65;6.13;;;13.50;99.90;;;;;;4923958;29;20035;-64
2023/10/09 10:19:06;;;;;;;8.13;6.50;;;13.60;99.90;;;;;;4927338;28;20505;-64
2023/10/09 10:21:38;;;;;;;12.15;7.40;;;13.60;99.90;;;;;;4928023;29;20527;-65
2023/10/09 10:24:09;;;;;;;8.27;7.07;;;13.50;99.90;;;;;;4927196;29;20055;-64
2023/10/09 10:26:35;;;;;;;;;;;13.60;99.90;;;;;;4929745;29;20020;-64
2023/10/09 10:29:23;;;;;;;8.52;7.72;;;13.60;99.90;;;;;;4923869;29;19969;-64
2023/10/09 10:32:06;;;;;;;8.20;7.32;;;13.70;99.90;;;;;;4925958;29;20078;-63
2023/10/09 10:34:56;;;;;;;8.52;7.32;;;13.70;99.90;;;;;;4924099;29;20123;-63
2023/10/09 10:37:51;;;;;;;9.27;7.13;;;13.80;99.90;;;;;;4924147;29;20260;-63
2023/10/09 10:40:38;;;;;;;11.95;7.28;;;13.80;99.90;;;;;;4923882;29;20028;-64
2023/10/09 10:43:13;;;;;;;7.07;6.38;;;13.90;99.90;;;;;;4926673;29;20036;-62
2023/10/09 10:45:45;;;;;;;9.32;6.50;;;14.00;99.90;;;;;;4927981;29;20083;-64
2023/10/09 10:48:37;;;;;;;8.35;7.05;;;14.00;99.90;;;;;;4921664;29;20036;-63
2023/10/09 10:51:03;;;;;;;7.32;6.50;;;14.20;99.90;;;;;;4925830;29;20023;-64
2023/10/09 10:53:47;;;;;;;8.93;6.13;;;14.30;99.90;;;;;;4925884;29;20373;-64
2023/10/09 11:01:25;;;;;;;8.63;6.90;;;14.60;99.90;;;;;;4927565;29;20404;-64
2023/10/09 11:03:58;;;;;;;7.40;6.60;;;14.60;99.90;;;;;;4927714;29;20079;-64
2023/10/09 11:06:37;;;;;;;6.93;6.30;;;14.70;99.90;;;;;;4926678;28;20087;-64
2023/10/09 11:09:21;;;;;;;8.88;7.95;;;14.70;99.90;;;;;;4923644;29;20024;-63
2023/10/09 11:11:55;;;;;;;11.50;7.75;;;14.80;99.90;;;;;;4930778;29;20039;-64
2023/10/09 11:14:23;;;;;;;9.55;8.20;;;14.80;99.90;;;;;;4934565;29;20046;-64
2023/10/09 11:16:50;;;;;;;9.52;7.50;;;14.80;99.90;;;;;;4931578;29;20579;-63
2023/10/09 11:24:34;;;;;;;8.55;7.57;;;14.90;99.90;;;;;;4931226;28;20031;-63
2023/10/09 11:27:07;;;;;;;8.23;7.40;;;15.00;99.90;;;;;;4929842;29;20039;-64
2023/10/09 11:30:21;;;;;;;10.38;7.95;;;15.10;99.90;;;;;;4930460;29;20034;-64
2023/10/09 11:32:23;;;;;;;11.93;8.57;;;15.20;99.90;;;;;;4924951;29;20039;-63
2023/10/09 11:34:51;;;;;;;10.75;8.98;;;15.40;99.90;;;;;;4931580;29;20130;-64
2023/10/09 11:39:58;;;;;;;9.35;8.55;;;15.50;99.90;;;;;;4931998;29;20051;-64
2023/10/09 11:42:47;;;;;;;11.38;8.55;;;15.50;99.90;;;;;;4933027;29;20403;-65
2023/10/09 11:45:29;;;;;;;9.80;8.68;;;15.50;99.90;;;;;;4930549;29;20111;-63
2023/10/09 11:47:57;;;;;;;7.85;7.13;;;15.50;99.90;;;;;;4924668;29;20043;-65
2023/10/09 11:50:52;;;;;;;10.52;7.53;;;15.50;99.90;;;;;;4927771;29;20051;-64
2023/10/09 11:53:43;;;;;;;12.93;7.07;;;15.60;99.90;;;;;;4929317;29;20043;-65
2023/10/09 11:56:05;;;;;;;10.40;7.22;;;15.60;99.90;;;;;;4929708;28;20401;-64
2023/10/09 11:58:31;;;;;;;10.32;7.40;;;15.70;99.90;;;;;;4929793;29;20024;-64
2023/10/09 12:01:04;;;;;;;9.23;7.50;;;15.80;99.90;;;;;;4928747;29;20602;-63
2023/10/09 12:03:31;;;;;;;12.30;7.60;;;15.70;99.90;;;;;;4927125;29;20052;-64
2023/10/09 12:06:05;;;;;;;11.32;7.78;;;15.70;99.90;;;;;;4926774;29;20028;-65
2023/10/09 12:08:32;;;;;;;8.57;7.60;;;15.70;99.90;;;;;;4930265;29;20027;-64
2023/10/09 12:10:58;;;;;;;8.98;8.07;;;15.70;99.90;;;;;;4926986;29;20123;-63
2023/10/09 12:13:25;;;;;;;10.75;9.70;;;15.70;99.90;;;;;;4927158;29;20454;-64
2023/10/09 12:15:55;;;;;;;13.23;8.05;;;15.70;99.90;;;;;;4928384;29;20488;-64
2023/10/09 12:18:23;;;;;;;8.65;7.90;;;15.80;99.90;;;;;;4926333;29;20493;-64
2023/10/09 12:20:53;;;;;;;10.38;8.07;;;15.80;99.90;;;;;;4927160;29;20042;-64
2023/10/09 12:23:20;;;;;;;9.30;8.43;;;15.80;99.90;;;;;;4926746;29;20115;-65
2023/10/09 12:25:49;;;;;;;10.20;8.00;;;16.00;99.90;;;;;;4922106;29;20056;-64
2023/10/09 12:28:20;;;;;;;8.18;7.10;;;16.10;99.90;;;;;;4926410;29;20028;-64
2023/10/09 12:30:50;;;;;;;10.68;8.75;;;16.10;99.90;;;;;;4926867;29;20036;-64
2023/10/09 12:33:16;;;;;;;9.23;8.17;;;16.30;99.90;;;;;;4932265;29;20065;-65
2023/10/09 12:35:45;;;;;;;9.13;7.60;;;16.50;99.90;;;;;;4930620;29;20024;-65
2023/10/09 12:38:12;;;;;;;9.98;8.98;;;16.60;99.90;;;;;;4929902;29;20398;-64
2023/10/09 12:40:41;;;;;;;9.52;7.85;;;16.80;99.90;;;;;;4930366;29;20452;-64
2023/10/09 12:43:15;;;;;;;9.80;7.82;;;16.90;99.90;;;;;;4928215;29;20127;-64
2023/10/09 12:45:42;;;;;;;8.85;7.00;;;17.00;99.90;;;;;;4926442;29;20040;-64
2023/10/09 12:48:09;;;;;;;7.22;6.47;;;17.10;99.90;;;;;;4928489;29;20656;-64
2023/10/09 12:50:41;;;;;;;11.50;7.38;;;17.10;99.90;;;;;;4929369;29;20533;-64
2023/10/09 12:53:08;;;;;;;12.13;8.45;;;17.10;99.90;;;;;;4928621;29;20047;-66
2023/10/09 12:55:41;;;;;;;10.35;7.57;;;17.10;99.90;;;;;;4927954;29;20468;-65
2023/10/09 12:58:15;;;;;;;10.48;7.50;;;17.00;99.90;;;;;;4926411;29;20031;-64
2023/10/09 13:00:48;;;;;;;8.35;6.72;;;16.90;99.90;;;;;;4930368;29;20078;-63
2023/10/09 13:03:18;;;;;;;9.20;7.30;;;16.80;99.90;;;;;;4927671;29;20492;-64
2023/10/09 13:05:57;;;;;;;11.57;6.65;;;16.80;99.90;;;;;;4928883;29;20031;-64
2023/10/09 13:08:34;;;;;;;11.95;6.75;;;16.80;99.90;;;;;;4929049;29;20035;-64
2023/10/09 13:11:10;;;;;;;8.57;5.40;;;16.80;99.90;;;;;;4927323;29;20043;-64
2023/10/09 13:13:40;;;;;;;8.70;6.45;;;16.80;99.90;;;;;;4929749;28;20112;-64
2023/10/09 13:16:25;;;;;;;13.73;6.80;;;16.80;99.90;;;;;;4932085;29;20071;-64
2023/10/09 13:18:52;;;;;;;8.05;6.13;;;16.80;99.90;;;;;;4925849;29;20398;-64
2023/10/09 13:21:26;;;;;;;8.18;5.40;;;16.70;99.90;;;;;;4928066;29;20067;-64
2023/10/09 13:23:54;;;;;;;6.60;5.95;;;16.70;99.90;;;;;;4925312;29;20357;-64
2023/10/09 13:26:35;;;;;;;5.68;5.03;;;16.80;99.90;;;;;;4925231;29;20101;-63
2023/10/09 13:29:03;;;;;;;;;;;16.90;99.90;;;;;;4929662;28;20040;-63
2023/10/09 13:31:31;;;;;;;9.18;5.50;;;16.90;99.90;;;;;;4927007;29;19915;-64
2023/10/09 13:33:59;;;;;;;9.02;5.43;;;16.90;99.90;;;;;;4926149;29;20062;-63
2023/10/09 13:36:32;;;;;;;6.20;5.15;;;16.90;99.90;;;;;;4925744;29;20523;-64
2023/10/09 13:39:24;;;;;;;13.70;5.60;;;16.90;99.90;;;;;;4925140;28;20034;-63
2023/10/09 13:41:58;;;;;;;8.07;5.57;;;16.90;99.90;;;;;;4928000;29;20567;-62
2023/10/09 13:44:28;;;;;;;8.90;4.53;;;16.90;99.90;;;;;;4927621;29;20036;-64
2023/10/09 13:46:58;;;;;;;6.23;5.07;;;16.90;99.90;;;;;;4927809;28;20035;-64
2023/10/09 13:49:29;;;;;;;10.55;6.60;;;16.80;99.90;;;;;;4928179;29;20036;-64
2023/10/09 13:51:56;;;;;;;8.85;4.43;;;16.70;99.90;;;;;;4928469;29;20044;-64
2023/10/09 13:56:59;;;;;;;5.80;4.70;;;16.60;99.90;;;;;;4979744;28;20031;-62
2023/10/09 13:59:25;;;;;;;9.18;5.60;;;16.60;99.90;;;;;;4980004;28;20026;-63
2023/10/09 14:01:55;;;;;;;8.73;4.90;;;16.50;99.90;;;;;;5011471;28;20082;-62
2023/10/09 14:04:22;;;;;;;7.30;4.95;;;16.40;99.90;;;;;;5016551;28;20034;-63
2023/10/09 14:06:49;;;;;;;8.18;5.75;;;16.40;99.90;;;;;;5018804;28;20038;-62
2023/10/09 14:12:10;;;;;;;6.35;5.75;;;16.30;99.90;;;;;;5017931;28;20045;-62
2023/10/09 14:14:38;;;;;;;8.20;6.00;;;16.30;99.90;;;;;;5020255;28;20448;-63
2023/10/09 14:17:11;;;;;;;8.75;6.07;;;16.30;99.90;;;;;;5019387;28;20033;-62
2023/10/09 14:19:38;;;;;;;9.82;6.45;;;16.30;99.90;;;;;;5020164;28;20034;-63
2023/10/09 14:22:05;;;;;;;7.85;5.72;;;16.30;99.90;;;;;;5019250;28;20041;-62
2023/10/09 14:24:32;;;;;;;8.85;5.43;;;16.20;99.90;;;;;;5017063;28;20027;-62
2023/10/09 14:26:59;;;;;;;8.18;5.70;;;16.20;99.90;;;;;;5017490;28;20810;-63
2023/10/09 14:29:26;;;;;;;7.57;6.53;;;16.20;99.90;;;;;;5019078;28;20121;-63
2023/10/09 14:32:00;;;;;;;16.35;6.65;;;16.20;99.90;;;;;;5019208;28;20472;-63
2023/10/09 14:34:32;;;;;;;10.82;7.00;;;16.20;99.90;;;;;;5016305;28;20063;-63
2023/10/09 14:37:03;;;;;;;16.05;6.90;;;16.30;99.90;;;;;;5019082;28;20030;-63
2023/10/09 14:39:29;;;;;;;14.55;6.82;;;16.30;99.90;;;;;;5017930;28;20118;-63
2023/10/09 14:41:57;;;;;;;7.60;6.82;;;16.20;99.90;;;;;;5018580;28;20109;-63
2023/10/09 14:44:23;;;;;;;13.85;6.65;;;16.30;99.90;;;;;;5018033;28;20010;-62
2023/10/09 14:46:50;;;;;;;10.35;6.22;;;16.30;99.90;;;;;;5019214;28;20030;-63
2023/10/09 14:49:21;;;;;;;7.78;6.75;;;16.30;99.90;;;;;;5017437;28;20059;-63
2023/10/09 14:51:47;;;;;;;11.60;6.10;;;16.30;99.90;;;;;;5017070;28;20375;-63
2023/10/09 14:54:17;;;;;;;8.90;7.00;;;16.20;99.90;;;;;;5017370;28;20069;-64
2023/10/09 14:56:45;;;;;;;13.13;7.32;;;16.20;99.90;;;;;;5017619;28;20401;-64
2023/10/09 14:59:11;;;;;;;10.45;7.70;;;16.10;99.90;;;;;;5017773;28;20113;-63
2023/10/09 15:01:37;;;;;;;8.77;6.82;;;16.10;99.90;;;;;;5016864;28;20034;-62
2023/10/09 15:04:03;;;;;;;11.30;6.93;;;16.10;99.90;;;;;;5013551;28;20038;-62
2023/10/09 15:06:30;;;;;;;9.70;7.70;;;16.10;99.90;;;;;;5003384;28;20039;-62
2023/10/09 15:09:09;;;;;;;11.77;7.45;;;16.10;99.90;;;;;;5002807;28;20026;-63
2023/10/09 15:11:38;;;;;;;10.25;7.53;;;16.10;99.90;;;;;;5006726;28;20076;-63
2023/10/09 15:14:05;;;;;;;8.50;7.65;;;16.10;99.90;;;;;;5004382;28;20042;-63
2023/10/09 15:16:31;;;;;;;10.15;7.47;;;16.10;99.90;;;;;;5006684;28;20106;-63
2023/10/09 15:18:57;;;;;;;8.43;7.18;;;16.00;99.90;;;;;;4998736;28;20494;-63
2023/10/09 15:21:26;;;;;;;9.50;7.28;;;16.10;99.90;;;;;;5001086;28;20030;-62
2023/10/09 15:23:54;;;;;;;7.78;5.57;;;16.00;99.90;;;;;;5002974;28;20029;-63
2023/10/09 15:26:20;;;;;;;8.82;5.80;;;15.90;99.90;;;;;;5000802;28;20036;-63
2023/10/09 15:28:46;;;;;;;12.05;7.38;;;15.90;99.90;;;;;;5001058;28;20034;-64
2023/10/09 15:31:13;;;;;;;7.55;6.00;;;15.90;99.90;;;;;;5000384;28;20046;-63
2023/10/09 15:33:39;;;;;;;8.38;5.88;;;15.90;99.90;;;;;;5000839;28;20498;-63
2023/10/09 15:36:13;;;;;;;9.02;6.65;;;15.80;99.90;;;;;;5009114;28;20037;-63
2023/10/09 15:38:39;;;;;;;9.35;6.28;;;15.90;99.90;;;;;;5003795;28;20105;-62
2023/10/09 15:41:06;;;;;;;10.13;7.13;;;15.80;99.90;;;;;;5001244;28;20041;-63
2023/10/09 15:43:41;;;;;;;11.60;7.78;;;15.80;99.90;;;;;;5001750;28;20122;-62
2023/10/09 15:46:14;;;;;;;11.68;6.20;;;15.80;99.90;;;;;;5003354;28;20030;-62
2023/10/09 15:48:40;;;;;;;8.07;5.18;;;15.80;99.90;;;;;;4998448;28;20034;-63
2023/10/09 15:51:11;;;;;;;6.78;4.63;;;15.80;99.90;;;;;;5000570;28;20110;-62
2023/10/09 15:53:38;;;;;;;14.85;5.18;;;15.80;99.90;;;;;;4996736;28;20371;-62
2023/10/09 15:56:04;;;;;;;13.93;5.30;;;15.70;99.90;;;;;;4999400;28;20057;-62
2023/10/09 15:58:29;;;;;;;7.50;5.50;;;15.70;99.90;;;;;;5001149;28;20492;-63
2023/10/09 16:00:55;;;;;;;16.17;7.75;;;15.70;99.90;;;;;;5008134;28;20041;-63
2023/10/09 16:03:20;;;;;;;10.48;8.63;;;15.70;99.90;;;;;;5003762;28;20045;-62
2023/10/09 16:05:47;;;;;;;8.70;6.75;;;15.70;99.90;;;;;;5002596;28;20033;-62